createdAt,value
2022-11-09T00:02:14.021Z,59.13
2022-11-09T00:05:03.582Z,55.85
2022-11-09T00:07:52.623Z,58.42
2022-11-09T00:10:41.915Z,56.85
2022-11-09T00:13:31.048Z,60.42
2022-11-09T00:16:24.232Z,56.53
2022-11-09T00:19:14.130Z,64.05
2022-11-09T00:22:03.090Z,60.83
2022-11-09T00:24:54.037Z,57.03
2022-11-09T00:27:43.697Z,56.83
2022-11-09T00:30:33.220Z,61.95
2022-11-09T00:33:24.022Z,58.72
2022-11-09T00:36:14.552Z,62.15
2022-11-09T00:39:03.547Z,63.88
2022-11-09T00:41:53.068Z,58.88
2022-11-09T00:44:42.106Z,69.45
2022-11-09T00:47:30.848Z,69.03
2022-11-09T00:50:39.844Z,63.75
2022-11-09T00:56:36.705Z,63.08
2022-11-09T00:59:25.895Z,60.58
2022-11-09T01:02:15.139Z,67.35
2022-11-09T01:05:05.087Z,64.43
2022-11-09T01:07:55.576Z,57.38
2022-11-09T01:10:46.022Z,59.22
2022-11-09T01:13:35.776Z,61.90
2022-11-09T01:16:25.586Z,58.88
2022-11-09T01:19:14.826Z,57.70
2022-11-09T01:22:03.804Z,55.75
2022-11-09T01:24:54.625Z,56.50
2022-11-09T01:27:43.700Z,65.30
2022-11-09T01:30:32.375Z,63.17
2022-11-09T01:33:21.818Z,54.03
2022-11-09T01:36:12.979Z,61.95
2022-11-09T01:39:02.636Z,63.97
2022-11-09T01:41:53.199Z,60.28
2022-11-09T01:44:42.354Z,61.33
2022-11-09T01:47:32.354Z,68.97
2022-11-09T01:50:33.672Z,58.00
2022-11-09T01:53:25.735Z,62.72
2022-11-09T01:56:16.307Z,61.40
2022-11-09T01:59:11.141Z,56.67
2022-11-09T02:02:01.252Z,59.83
2022-11-09T02:04:55.984Z,56.45
2022-11-09T02:07:47.136Z,55.10
2022-11-09T02:10:42.080Z,62.45
2022-11-09T02:13:32.419Z,64.70
2022-11-09T02:16:24.846Z,58.78
2022-11-09T02:19:14.569Z,60.38
2022-11-09T02:22:05.484Z,60.75
2022-11-09T02:24:56.477Z,62.00
2022-11-09T02:27:46.898Z,64.43
2022-11-09T02:30:37.295Z,57.92
2022-11-09T02:33:26.954Z,54.72
2022-11-09T02:36:16.298Z,64.55
2022-11-09T02:39:07.882Z,65.22
2022-11-09T02:42:03.195Z,57.80
2022-11-09T02:44:58.016Z,65.35
2022-11-09T02:47:47.559Z,59.50
2022-11-09T02:50:37.566Z,62.75
2022-11-09T02:53:27.347Z,64.32
2022-11-09T02:56:19.505Z,57.95
2022-11-09T02:59:08.889Z,54.20
2022-11-09T03:01:58.237Z,57.22
2022-11-09T03:04:47.221Z,59.95
2022-11-09T03:07:36.045Z,59.85
2022-11-09T03:10:24.978Z,58.17
2022-11-09T03:13:17.035Z,58.92
2022-11-09T03:16:07.641Z,58.80
2022-11-09T03:18:58.294Z,57.25
2022-11-09T03:21:46.802Z,65.90
2022-11-09T03:24:36.039Z,63.42
2022-11-09T03:27:25.024Z,65.30
2022-11-09T03:30:15.661Z,61.15
2022-11-09T03:33:10.327Z,64.63
2022-11-09T03:35:59.568Z,66.38
2022-11-09T03:38:48.937Z,70.90
2022-11-09T03:41:39.091Z,62.42
2022-11-09T03:44:28.198Z,58.80
2022-11-09T03:47:18.825Z,63.95
2022-11-09T03:50:09.731Z,68.97
2022-11-09T03:52:58.950Z,64.13
2022-11-09T03:55:48.167Z,67.90
2022-11-09T03:58:37.077Z,69.13
2022-11-09T04:01:26.103Z,68.05
2022-11-09T04:04:16.900Z,64.80
2022-11-09T04:07:06.061Z,71.00
2022-11-09T04:09:55.726Z,62.15
2022-11-09T04:12:45.210Z,66.10
2022-11-09T04:15:34.762Z,66.55
2022-11-09T04:18:23.471Z,68.28
2022-11-09T04:21:13.986Z,61.78
2022-11-09T04:24:03.200Z,64.43
2022-11-09T04:26:52.568Z,68.45
2022-11-09T04:29:41.767Z,62.65
2022-11-09T04:32:30.906Z,68.20
2022-11-09T04:35:19.993Z,66.18
2022-11-09T04:38:14.151Z,58.95
2022-11-09T04:41:04.484Z,61.97
2022-11-09T04:43:53.736Z,59.72
2022-11-09T04:46:43.009Z,59.65
2022-11-09T04:49:32.010Z,66.00
2022-11-09T04:52:21.607Z,66.55
2022-11-09T04:55:12.724Z,65.90
2022-11-09T04:58:01.946Z,61.50
2022-11-09T05:00:51.196Z,64.85
2022-11-09T05:03:40.764Z,62.63
2022-11-09T05:06:36.588Z,60.08
2022-11-09T05:09:26.027Z,65.57
2022-11-09T05:12:16.819Z,64.53
2022-11-09T05:15:07.270Z,63.22
2022-11-09T05:17:57.002Z,60.35
2022-11-09T05:23:37.701Z,56.45
2022-11-09T05:26:27.831Z,57.13
2022-11-09T05:29:18.606Z,58.38
2022-11-09T05:32:07.954Z,66.35
2022-11-09T05:34:57.504Z,60.05
2022-11-09T05:37:48.854Z,61.45
2022-11-09T05:40:37.476Z,68.00
2022-11-09T05:43:26.535Z,58.90
2022-11-09T05:46:18.198Z,59.30
2022-11-09T05:49:07.369Z,62.17
2022-11-09T05:51:57.002Z,65.40
2022-11-09T05:54:46.497Z,68.45
2022-11-09T05:57:36.201Z,58.80
2022-11-09T06:00:25.839Z,62.78
2022-11-09T06:03:16.630Z,62.00
2022-11-09T06:06:08.853Z,64.18
2022-11-09T06:08:58.672Z,61.95
2022-11-09T06:11:48.206Z,62.83
2022-11-09T06:14:37.324Z,64.13
2022-11-09T06:17:26.178Z,64.20
2022-11-09T06:20:18.050Z,60.15
2022-11-09T06:23:06.675Z,59.85
2022-11-09T06:25:58.675Z,73.80
2022-11-09T06:28:47.713Z,64.78
2022-11-09T06:31:37.160Z,65.05
2022-11-09T06:34:26.814Z,63.28
2022-11-09T06:37:18.580Z,66.97
2022-11-09T06:40:08.139Z,69.32
2022-11-09T06:42:59.567Z,68.38
2022-11-09T06:45:49.206Z,63.80
2022-11-09T06:48:38.748Z,59.75
2022-11-09T06:51:28.201Z,67.43
2022-11-09T06:54:19.545Z,61.33
2022-11-09T06:57:09.176Z,60.10
2022-11-09T07:00:00.311Z,65.47
2022-11-09T07:02:49.723Z,63.28
2022-11-09T07:05:40.488Z,63.47
2022-11-09T07:08:30.046Z,67.65
2022-11-09T07:11:21.177Z,65.82
2022-11-09T07:14:10.945Z,68.47
2022-11-09T07:17:00.042Z,66.30
2022-11-09T07:19:50.100Z,68.43
2022-11-09T07:22:40.278Z,74.18
2022-11-09T07:25:29.706Z,67.20
2022-11-09T07:28:20.267Z,59.55
2022-11-09T07:31:10.973Z,69.10
2022-11-09T07:34:04.748Z,68.90
2022-11-09T07:36:55.538Z,68.00
2022-11-09T07:39:45.207Z,67.30
2022-11-09T07:42:34.936Z,60.22
2022-11-09T07:45:26.343Z,69.05
2022-11-09T07:48:16.145Z,67.35
2022-11-09T07:51:05.861Z,68.20
2022-11-09T07:53:55.201Z,69.32
2022-11-09T07:56:44.559Z,64.60
2022-11-09T07:59:33.981Z,59.95
2022-11-09T08:02:25.515Z,59.58
2022-11-09T08:05:15.191Z,59.10
2022-11-09T08:08:06.221Z,61.60
2022-11-09T08:10:57.796Z,62.65
2022-11-09T08:13:47.509Z,59.83
2022-11-09T08:16:37.986Z,55.53
2022-11-09T08:19:29.118Z,62.33
2022-11-09T08:22:18.765Z,53.75
2022-11-09T08:25:08.937Z,53.40
2022-11-09T08:27:58.443Z,56.80
2022-11-09T08:30:48.129Z,57.50
2022-11-09T08:33:38.774Z,56.50
2022-11-09T08:36:30.004Z,55.38
2022-11-09T08:39:19.082Z,50.45
2022-11-09T08:42:08.477Z,54.67
2022-11-09T08:44:58.534Z,49.78
2022-11-09T08:47:48.022Z,45.38
2022-11-09T08:50:38.705Z,56.90
2022-11-09T08:53:31.249Z,53.75
2022-11-09T08:56:20.302Z,47.00
2022-11-09T08:59:09.766Z,52.47
2022-11-09T09:01:59.543Z,44.22
2022-11-09T09:04:48.666Z,49.72
2022-11-09T09:07:37.746Z,50.90
2022-11-09T09:10:29.182Z,52.15
2022-11-09T09:13:19.675Z,49.28
2022-11-09T09:16:13.203Z,51.38
2022-11-09T09:19:02.427Z,47.17
2022-11-09T09:21:51.263Z,49.42
2022-11-09T09:24:40.255Z,47.58
2022-11-09T09:27:31.455Z,44.47
2022-11-09T09:30:21.190Z,48.10
2022-11-09T09:33:10.580Z,49.38
2022-11-09T09:36:00.374Z,46.60
2022-11-09T09:38:52.111Z,55.40
2022-11-09T09:41:44.126Z,60.75
2022-11-09T09:44:40.149Z,49.08
2022-11-09T09:47:42.146Z,56.30
2022-11-09T09:50:37.905Z,59.88
2022-11-09T09:53:34.125Z,55.92
2022-11-09T09:56:26.741Z,54.65
2022-11-09T09:59:22.329Z,54.97
2022-11-09T10:02:22.858Z,58.05
2022-11-09T10:05:16.407Z,58.75
2022-11-09T10:08:10.476Z,54.47
2022-11-09T10:11:11.029Z,60.05
2022-11-09T10:14:17.307Z,63.78
2022-11-09T10:17:16.092Z,58.83
2022-11-09T10:20:19.295Z,56.90
2022-11-09T10:23:28.705Z,56.75
2022-11-09T10:26:21.675Z,57.70
2022-11-09T10:29:24.381Z,60.47
2022-11-09T10:32:17.991Z,52.92
2022-11-09T10:35:18.496Z,66.63
2022-11-09T10:38:14.732Z,61.20
2022-11-09T10:41:12.386Z,65.00
2022-11-09T10:44:01.715Z,57.20
2022-11-09T10:47:05.271Z,67.30
2022-11-09T10:50:24.582Z,67.13
2022-11-09T10:53:17.105Z,62.03
2022-11-09T10:56:20.717Z,64.88
2022-11-09T10:59:37.633Z,64.47
2022-11-09T11:02:47.668Z,63.40
2022-11-09T11:05:40.059Z,68.13
2022-11-09T11:08:33.032Z,67.78
2022-11-09T11:11:33.795Z,67.72
2022-11-09T11:14:30.837Z,66.25
2022-11-09T11:17:23.835Z,63.67
2022-11-09T11:20:31.241Z,60.60
2022-11-09T14:04:28.559Z,71.07
2022-11-09T14:07:23.518Z,72.03
2022-11-09T14:10:22.637Z,72.05
2022-11-09T14:13:25.678Z,69.88
2022-11-09T14:16:26.152Z,66.90
2022-11-09T14:19:33.372Z,67.68
2022-11-09T14:22:22.474Z,62.35
2022-11-09T14:25:16.671Z,64.07
2022-11-09T14:28:23.119Z,62.13
2022-11-09T14:31:24.532Z,50.42
2022-11-09T14:34:17.931Z,47.70
2022-11-09T14:37:09.209Z,44.90
2022-11-09T14:39:59.429Z,38.65
2022-11-09T14:42:52.550Z,38.78
2022-11-09T14:45:50.758Z,39.22
2022-11-09T14:48:44.854Z,39.92
2022-11-09T14:51:38.303Z,38.85
2022-11-09T14:54:29.709Z,37.13
2022-11-09T14:57:19.435Z,40.63
2022-11-09T15:00:24.509Z,43.90
2022-11-09T15:03:27.984Z,40.58
2022-11-09T15:06:19.872Z,44.05
2022-11-09T15:09:10.979Z,43.42
2022-11-09T15:12:01.828Z,45.55
2022-11-09T15:14:52.379Z,36.75
2022-11-09T15:17:47.281Z,40.15
2022-11-09T15:20:36.368Z,42.63
2022-11-09T15:23:38.747Z,40.50
2022-11-09T15:26:34.878Z,47.08
2022-11-09T15:29:39.140Z,44.30
2022-11-09T15:32:28.120Z,45.17
2022-11-09T15:35:19.175Z,39.38
2022-11-09T15:38:27.772Z,47.83
2022-11-09T15:41:19.607Z,47.38
2022-11-09T15:44:09.740Z,46.75
2022-11-09T15:47:00.620Z,43.53
2022-11-09T15:49:50.207Z,47.85
2022-11-09T15:52:40.008Z,47.10
2022-11-09T15:55:29.782Z,47.83
2022-11-09T15:58:20.421Z,49.30
2022-11-09T16:01:11.698Z,50.03
2022-11-09T16:04:03.491Z,47.83
2022-11-09T16:06:52.783Z,43.40
2022-11-09T16:09:43.066Z,50.45
2022-11-09T16:12:32.275Z,49.28
2022-11-09T16:15:21.800Z,47.13
2022-11-09T16:18:10.886Z,42.55
2022-11-09T16:21:09.294Z,46.08
2022-11-09T16:23:59.007Z,41.28
2022-11-09T16:26:48.594Z,44.40
2022-11-09T16:29:37.923Z,46.13
2022-11-09T16:32:26.455Z,49.17
2022-11-09T16:35:26.513Z,42.22
2022-11-09T16:38:17.807Z,47.90
2022-11-09T16:41:08.711Z,46.95
2022-11-09T16:43:59.222Z,44.75
2022-11-09T16:46:49.082Z,43.25
2022-11-09T16:49:38.842Z,42.83
2022-11-09T16:52:27.707Z,41.47
2022-11-09T16:55:18.999Z,47.53
2022-11-09T16:58:08.539Z,37.88
2022-11-09T17:01:10.590Z,41.70
2022-11-09T17:04:01.476Z,41.70
2022-11-09T17:06:51.268Z,46.50
2022-11-09T17:09:40.645Z,45.78
2022-11-09T17:12:33.171Z,43.97
2022-11-09T17:15:22.802Z,45.65
2022-11-09T17:18:11.664Z,48.17
2022-11-09T17:21:01.517Z,49.08
2022-11-09T17:23:52.324Z,43.67
2022-11-09T17:26:41.187Z,45.08
2022-11-09T17:29:32.416Z,52.70
2022-11-09T17:32:26.127Z,44.03
2022-11-09T17:35:15.524Z,45.17
2022-11-09T17:38:04.431Z,44.95
2022-11-09T17:40:54.538Z,44.63
2022-11-09T17:43:45.714Z,43.00
2022-11-09T17:46:36.206Z,46.95
2022-11-09T17:49:25.581Z,46.67
2022-11-09T17:52:15.116Z,47.42
2022-11-09T17:55:03.800Z,45.55
2022-11-09T17:57:53.125Z,43.95
2022-11-09T18:00:42.057Z,45.08
2022-11-09T18:03:34.698Z,44.55
2022-11-09T18:06:25.654Z,51.58
2022-11-09T18:12:24.688Z,47.28
2022-11-09T18:15:14.113Z,44.85
2022-11-09T18:18:03.613Z,50.38
2022-11-09T18:20:54.213Z,45.13
2022-11-09T18:23:43.988Z,43.10
2022-11-09T18:26:33.451Z,47.13
2022-11-09T18:29:23.210Z,49.97
2022-11-09T18:32:12.545Z,52.75
2022-11-09T18:35:01.357Z,45.22
2022-11-09T18:37:52.156Z,47.50
2022-11-09T18:40:41.325Z,45.88
2022-11-09T18:43:31.472Z,44.95
2022-11-09T18:46:23.963Z,43.28
2022-11-09T18:49:14.384Z,44.13
2022-11-09T18:52:04.268Z,52.13
2022-11-09T18:54:56.928Z,42.00
2022-11-09T18:57:46.265Z,44.60
2022-11-09T19:00:35.493Z,41.50
2022-11-09T19:03:25.542Z,44.88
2022-11-09T19:06:16.515Z,47.55
2022-11-09T19:09:22.870Z,50.88
2022-11-09T19:12:13.445Z,43.50
2022-11-09T19:15:02.928Z,50.97
2022-11-09T19:17:52.035Z,47.63
2022-11-09T19:20:41.745Z,43.47
2022-11-09T19:23:34.396Z,44.33
2022-11-09T19:26:24.654Z,41.72
2022-11-09T19:29:15.882Z,46.28
2022-11-09T19:32:05.359Z,51.17
2022-11-09T19:34:54.399Z,50.08
2022-11-09T19:37:43.108Z,46.72
2022-11-09T19:40:39.320Z,41.65
2022-11-09T19:43:28.876Z,50.72
2022-11-09T19:46:19.863Z,48.95
2022-11-09T19:49:10.203Z,48.42
2022-11-09T19:51:59.538Z,45.13
2022-11-09T19:54:48.842Z,43.45
2022-11-09T19:57:37.952Z,52.15
2022-11-09T20:00:27.604Z,54.97
2022-11-09T20:23:05.731Z,49.83
2022-11-09T20:25:55.369Z,49.45
2022-11-09T20:28:43.892Z,59.67
2022-11-09T20:31:33.151Z,66.57
2022-11-09T20:34:22.697Z,52.25
2022-11-09T20:37:11.535Z,62.55
2022-11-09T20:40:02.480Z,60.90
2022-11-09T20:42:51.825Z,54.00
2022-11-09T20:45:40.904Z,54.17
2022-11-09T20:48:52.917Z,54.50
2022-11-09T20:51:40.307Z,55.25
2022-11-09T20:54:29.925Z,48.97
2022-11-09T20:57:21.899Z,52.88
2022-11-09T21:00:12.043Z,56.13
2022-11-09T21:03:01.404Z,55.88
2022-11-09T21:05:54.281Z,54.35
2022-11-09T21:08:46.197Z,54.90
2022-11-09T21:11:58.218Z,53.28
2022-11-09T21:14:48.678Z,56.22
2022-11-09T21:17:37.995Z,56.60
2022-11-09T21:20:27.174Z,56.03
2022-11-09T21:23:33.850Z,53.63
2022-11-09T21:26:40.097Z,58.42
2022-11-09T21:29:47.038Z,56.05
2022-11-09T21:32:37.777Z,54.60
2022-11-09T21:35:28.731Z,59.05
2022-11-09T21:38:18.535Z,53.25
2022-11-09T21:41:22.769Z,59.70
2022-11-09T21:44:12.795Z,58.53
2022-11-09T21:47:02.083Z,53.97
2022-11-09T21:49:52.525Z,54.85
2022-11-09T21:52:42.086Z,61.47
2022-11-09T21:55:31.827Z,52.28
2022-11-09T21:58:21.043Z,50.97
2022-11-09T22:01:11.690Z,62.13
2022-11-09T22:04:01.086Z,58.15
2022-11-09T22:06:51.368Z,62.45
2022-11-09T22:10:08.408Z,53.95
2022-11-09T22:13:07.537Z,51.85
2022-11-09T22:16:09.410Z,52.25
2022-11-09T22:19:16.043Z,55.78
2022-11-09T22:22:07.311Z,49.88
2022-11-09T22:24:57.772Z,55.17
2022-11-09T22:27:47.019Z,51.20
2022-11-09T22:30:36.596Z,55.00
2022-11-09T22:33:27.442Z,50.28
2022-11-09T22:36:18.491Z,48.28
2022-11-09T22:39:09.351Z,51.40
2022-11-09T22:41:58.905Z,46.08
2022-11-09T22:44:48.505Z,49.50
2022-11-09T22:47:38.060Z,47.40
2022-11-09T22:50:27.101Z,44.92
2022-11-09T22:53:16.200Z,50.65
2022-11-09T22:56:07.181Z,48.88
2022-11-09T22:58:56.415Z,47.67
2022-11-09T23:01:46.472Z,45.22
2022-11-09T23:04:35.523Z,43.67
2022-11-09T23:07:24.718Z,47.20
2022-11-09T23:10:15.301Z,42.97
2022-11-09T23:13:06.389Z,45.25
2022-11-09T23:15:56.554Z,47.88
2022-11-09T23:18:58.041Z,48.67
2022-11-09T23:21:46.834Z,43.63
2022-11-09T23:24:53.627Z,42.47
2022-11-09T23:27:43.805Z,44.63
2022-11-09T23:30:34.476Z,42.70
2022-11-09T23:33:24.334Z,48.33
2022-11-09T23:36:14.099Z,44.83
2022-11-09T23:39:03.738Z,45.58
2022-11-09T23:41:53.312Z,43.72
2022-11-09T23:44:43.209Z,41.67
2022-11-09T23:47:34.240Z,40.92
2022-11-09T23:50:23.611Z,47.08
2022-11-09T23:53:13.197Z,42.88
2022-11-09T23:56:02.641Z,44.83
2022-11-09T23:58:52.455Z,46.25
